sensor_id;sensor_type;location;lat;lon;timestamp;P1;durP1;ratioP1;P2;durP2;ratioP2
3016;SDS011;1518;52.408;13.060;2023-04-15T00:00:32;1.38;;;1.27;;
3016;SDS011;1518;52.408;13.060;2023-04-15T00:03:20;0.98;;;0.95;;
3016;SDS011;1518;52.408;13.060;2023-04-15T00:06:09;1.27;;;1.17;;
3016;SDS011;1518;52.408;13.060;2023-04-15T00:08:59;1.65;;;1.50;;
3016;SDS011;1518;52.408;13.060;2023-04-15T00:11:48;1.83;;;1.50;;
3016;SDS011;1518;52.408;13.060;2023-04-15T00:14:37;1.40;;;1.30;;
3016;SDS011;1518;52.408;13.060;2023-04-15T00:17:25;2.03;;;1.27;;
3016;SDS011;1518;52.408;13.060;2023-04-15T00:20:13;1.67;;;1.25;;
3016;SDS011;1518;52.408;13.060;2023-04-15T00:23:01;1.05;;;1.00;;
3016;SDS011;1518;52.408;13.060;2023-04-15T00:25:51;1.40;;;1.30;;
3016;SDS011;1518;52.408;13.060;2023-04-15T00:28:39;1.42;;;1.33;;
3016;SDS011;1518;52.408;13.060;2023-04-15T00:31:27;1.73;;;1.30;;
3016;SDS011;1518;52.408;13.060;2023-04-15T00:34:16;1.40;;;1.30;;
3016;SDS011;1518;52.408;13.060;2023-04-15T00:37:04;1.80;;;1.70;;
3016;SDS011;1518;52.408;13.060;2023-04-15T00:39:52;1.55;;;1.45;;
3016;SDS011;1518;52.408;13.060;2023-04-15T00:42:42;1.52;;;1.42;;
3016;SDS011;1518;52.408;13.060;2023-04-15T00:45:31;3.10;;;1.35;;
3016;SDS011;1518;52.408;13.060;2023-04-15T00:48:19;1.80;;;1.70;;
3016;SDS011;1518;52.408;13.060;2023-04-15T00:51:07;1.52;;;1.42;;
3016;SDS011;1518;52.408;13.060;2023-04-15T00:53:56;1.50;;;1.40;;
3016;SDS011;1518;52.408;13.060;2023-04-15T00:56:44;1.42;;;1.33;;
3016;SDS011;1518;52.408;13.060;2023-04-15T00:59:33;1.75;;;1.65;;
3016;SDS011;1518;52.408;13.060;2023-04-15T01:02:22;1.90;;;1.75;;
3016;SDS011;1518;52.408;13.060;2023-04-15T01:05:10;1.23;;;1.13;;
3016;SDS011;1518;52.408;13.060;2023-04-15T01:07:58;1.30;;;1.20;;
3016;SDS011;1518;52.408;13.060;2023-04-15T01:10:46;1.90;;;1.80;;
3016;SDS011;1518;52.408;13.060;2023-04-15T01:13:35;1.40;;;1.30;;
3016;SDS011;1518;52.408;13.060;2023-04-15T01:16:24;1.90;;;1.67;;
3016;SDS011;1518;52.408;13.060;2023-04-15T01:19:14;1.77;;;1.67;;
3016;SDS011;1518;52.408;13.060;2023-04-15T01:22:04;1.67;;;1.58;;
3016;SDS011;1518;52.408;13.060;2023-04-15T01:24:54;2.90;;;2.65;;
3016;SDS011;1518;52.408;13.060;2023-04-15T01:27:48;2.95;;;2.28;;
3016;SDS011;1518;52.408;13.060;2023-04-15T01:30:37;2.42;;;1.88;;
3016;SDS011;1518;52.408;13.060;2023-04-15T01:33:25;2.40;;;2.20;;
3016;SDS011;1518;52.408;13.060;2023-04-15T01:36:13;1.60;;;1.50;;
3016;SDS011;1518;52.408;13.060;2023-04-15T01:39:01;2.53;;;2.10;;
3016;SDS011;1518;52.408;13.060;2023-04-15T01:41:51;1.83;;;1.73;;
3016;SDS011;1518;52.408;13.060;2023-04-15T01:44:40;1.90;;;1.80;;
3016;SDS011;1518;52.408;13.060;2023-04-15T01:47:28;2.63;;;1.80;;
3016;SDS011;1518;52.408;13.060;2023-04-15T01:50:16;2.10;;;1.65;;
3016;SDS011;1518;52.408;13.060;2023-04-15T01:53:05;2.33;;;2.13;;
3016;SDS011;1518;52.408;13.060;2023-04-15T01:55:54;1.85;;;1.70;;
3016;SDS011;1518;52.408;13.060;2023-04-15T01:58:42;2.33;;;1.73;;
3016;SDS011;1518;52.408;13.060;2023-04-15T02:01:31;1.92;;;1.70;;
3016;SDS011;1518;52.408;13.060;2023-04-15T02:04:20;2.00;;;1.90;;
3016;SDS011;1518;52.408;13.060;2023-04-15T02:07:08;2.35;;;2.15;;
3016;SDS011;1518;52.408;13.060;2023-04-15T02:09:56;2.85;;;2.55;;
3016;SDS011;1518;52.408;13.060;2023-04-15T02:12:44;1.70;;;1.60;;
3016;SDS011;1518;52.408;13.060;2023-04-15T02:15:32;2.05;;;1.90;;
3016;SDS011;1518;52.408;13.060;2023-04-15T02:18:22;3.00;;;2.08;;
3016;SDS011;1518;52.408;13.060;2023-04-15T02:21:10;2.00;;;1.90;;
3016;SDS011;1518;52.408;13.060;2023-04-15T02:23:58;2.20;;;2.00;;
3016;SDS011;1518;52.408;13.060;2023-04-15T02:26:46;2.42;;;2.22;;
3016;SDS011;1518;52.408;13.060;2023-04-15T02:29:34;2.30;;;2.10;;
3016;SDS011;1518;52.408;13.060;2023-04-15T02:32:22;2.38;;;2.17;;
3016;SDS011;1518;52.408;13.060;2023-04-15T02:35:11;2.78;;;2.25;;
3016;SDS011;1518;52.408;13.060;2023-04-15T02:37:59;3.13;;;2.30;;
3016;SDS011;1518;52.408;13.060;2023-04-15T02:40:48;2.13;;;1.90;;
3016;SDS011;1518;52.408;13.060;2023-04-15T02:43:36;2.50;;;2.30;;
3016;SDS011;1518;52.408;13.060;2023-04-15T02:46:25;3.30;;;2.53;;
3016;SDS011;1518;52.408;13.060;2023-04-15T02:49:13;4.05;;;3.65;;
3016;SDS011;1518;52.408;13.060;2023-04-15T02:52:03;2.33;;;2.13;;
3016;SDS011;1518;52.408;13.060;2023-04-15T02:54:51;2.85;;;2.30;;
3016;SDS011;1518;52.408;13.060;2023-04-15T02:57:43;2.55;;;2.28;;
3016;SDS011;1518;52.408;13.060;2023-04-15T03:00:31;3.13;;;2.65;;
3016;SDS011;1518;52.408;13.060;2023-04-15T03:03:19;2.30;;;1.95;;
3016;SDS011;1518;52.408;13.060;2023-04-15T03:06:07;4.43;;;3.35;;
3016;SDS011;1518;52.408;13.060;2023-04-15T03:08:56;3.95;;;3.55;;
3016;SDS011;1518;52.408;13.060;2023-04-15T03:11:46;2.78;;;2.28;;
3016;SDS011;1518;52.408;13.060;2023-04-15T03:14:34;2.72;;;2.53;;
3016;SDS011;1518;52.408;13.060;2023-04-15T03:17:22;2.83;;;2.55;;
3016;SDS011;1518;52.408;13.060;2023-04-15T03:20:10;3.10;;;2.80;;
3016;SDS011;1518;52.408;13.060;2023-04-15T03:22:58;2.63;;;2.40;;
3016;SDS011;1518;52.408;13.060;2023-04-15T03:25:47;2.97;;;2.67;;
3016;SDS011;1518;52.408;13.060;2023-04-15T03:28:35;3.17;;;2.80;;
3016;SDS011;1518;52.408;13.060;2023-04-15T03:31:24;2.88;;;2.63;;
3016;SDS011;1518;52.408;13.060;2023-04-15T03:34:12;5.40;;;3.65;;
3016;SDS011;1518;52.408;13.060;2023-04-15T03:37:00;2.80;;;2.60;;
3016;SDS011;1518;52.408;13.060;2023-04-15T03:39:48;3.13;;;2.83;;
3016;SDS011;1518;52.408;13.060;2023-04-15T03:42:38;3.95;;;2.60;;
3016;SDS011;1518;52.408;13.060;2023-04-15T03:45:26;2.63;;;2.40;;
3016;SDS011;1518;52.408;13.060;2023-04-15T03:48:14;2.70;;;2.50;;
3016;SDS011;1518;52.408;13.060;2023-04-15T03:51:04;2.53;;;2.30;;
3016;SDS011;1518;52.408;13.060;2023-04-15T03:53:52;4.15;;;3.25;;
3016;SDS011;1518;52.408;13.060;2023-04-15T03:56:40;3.47;;;3.15;;
3016;SDS011;1518;52.408;13.060;2023-04-15T03:59:29;3.03;;;2.72;;
3016;SDS011;1518;52.408;13.060;2023-04-15T04:02:17;2.92;;;2.60;;
3016;SDS011;1518;52.408;13.060;2023-04-15T04:05:05;3.38;;;2.92;;
3016;SDS011;1518;52.408;13.060;2023-04-15T04:07:54;6.25;;;3.65;;
3016;SDS011;1518;52.408;13.060;2023-04-15T04:10:42;4.35;;;3.95;;
3016;SDS011;1518;52.408;13.060;2023-04-15T04:13:30;4.53;;;3.80;;
3016;SDS011;1518;52.408;13.060;2023-04-15T04:16:20;4.63;;;3.65;;
3016;SDS011;1518;52.408;13.060;2023-04-15T04:19:08;6.95;;;4.82;;
3016;SDS011;1518;52.408;13.060;2023-04-15T04:21:56;5.95;;;3.75;;
3016;SDS011;1518;52.408;13.060;2023-04-15T04:24:44;4.15;;;3.53;;
3016;SDS011;1518;52.408;13.060;2023-04-15T04:27:32;4.32;;;3.28;;
3016;SDS011;1518;52.408;13.060;2023-04-15T04:30:20;3.58;;;3.28;;
3016;SDS011;1518;52.408;13.060;2023-04-15T04:33:10;4.28;;;3.42;;
3016;SDS011;1518;52.408;13.060;2023-04-15T04:35:58;3.72;;;3.08;;
3016;SDS011;1518;52.408;13.060;2023-04-15T04:38:46;3.85;;;3.22;;
3016;SDS011;1518;52.408;13.060;2023-04-15T04:41:34;5.50;;;3.70;;
3016;SDS011;1518;52.408;13.060;2023-04-15T04:44:22;2.88;;;2.65;;
3016;SDS011;1518;52.408;13.060;2023-04-15T04:47:10;3.50;;;3.20;;
3016;SDS011;1518;52.408;13.060;2023-04-15T04:49:59;3.00;;;2.80;;
3016;SDS011;1518;52.408;13.060;2023-04-15T04:52:47;3.63;;;3.33;;
3016;SDS011;1518;52.408;13.060;2023-04-15T04:55:35;4.55;;;4.15;;
3016;SDS011;1518;52.408;13.060;2023-04-15T04:58:23;4.00;;;2.78;;
3016;SDS011;1518;52.408;13.060;2023-04-15T05:01:11;4.18;;;3.58;;
3016;SDS011;1518;52.408;13.060;2023-04-15T05:04:00;3.13;;;2.92;;
3016;SDS011;1518;52.408;13.060;2023-04-15T05:06:52;4.13;;;3.72;;
3016;SDS011;1518;52.408;13.060;2023-04-15T05:09:40;3.92;;;3.63;;
3016;SDS011;1518;52.408;13.060;2023-04-15T05:12:28;3.83;;;3.25;;
3016;SDS011;1518;52.408;13.060;2023-04-15T05:15:16;4.05;;;3.60;;
3016;SDS011;1518;52.408;13.060;2023-04-15T05:18:04;4.25;;;3.85;;
3016;SDS011;1518;52.408;13.060;2023-04-15T05:20:52;4.18;;;3.45;;
3016;SDS011;1518;52.408;13.060;2023-04-15T05:23:41;3.78;;;3.47;;
3016;SDS011;1518;52.408;13.060;2023-04-15T05:26:29;5.40;;;4.75;;
3016;SDS011;1518;52.408;13.060;2023-04-15T05:29:18;5.65;;;4.50;;
3016;SDS011;1518;52.408;13.060;2023-04-15T05:32:06;5.47;;;4.82;;
3016;SDS011;1518;52.408;13.060;2023-04-15T05:34:54;6.32;;;5.20;;
3016;SDS011;1518;52.408;13.060;2023-04-15T05:37:42;7.85;;;5.93;;
3016;SDS011;1518;52.408;13.060;2023-04-15T05:40:32;4.25;;;3.75;;
3016;SDS011;1518;52.408;13.060;2023-04-15T05:43:20;4.88;;;4.15;;
3016;SDS011;1518;52.408;13.060;2023-04-15T05:46:08;5.80;;;4.10;;
3016;SDS011;1518;52.408;13.060;2023-04-15T05:48:56;4.60;;;4.20;;
3016;SDS011;1518;52.408;13.060;2023-04-15T05:51:46;4.35;;;3.92;;
3016;SDS011;1518;52.408;13.060;2023-04-15T05:54:34;3.95;;;3.55;;
3016;SDS011;1518;52.408;13.060;2023-04-15T05:57:24;3.55;;;3.25;;
3016;SDS011;1518;52.408;13.060;2023-04-15T06:00:12;3.75;;;3.45;;
3016;SDS011;1518;52.408;13.060;2023-04-15T06:03:01;4.10;;;3.80;;
3016;SDS011;1518;52.408;13.060;2023-04-15T06:05:49;3.83;;;3.50;;
3016;SDS011;1518;52.408;13.060;2023-04-15T06:08:37;3.70;;;3.40;;
3016;SDS011;1518;52.408;13.060;2023-04-15T06:11:26;3.60;;;3.30;;
3016;SDS011;1518;52.408;13.060;2023-04-15T06:14:15;4.38;;;3.15;;
3016;SDS011;1518;52.408;13.060;2023-04-15T06:17:03;3.95;;;3.60;;
3016;SDS011;1518;52.408;13.060;2023-04-15T06:19:51;4.53;;;3.92;;
3016;SDS011;1518;52.408;13.060;2023-04-15T06:22:41;4.32;;;3.92;;
3016;SDS011;1518;52.408;13.060;2023-04-15T06:25:29;4.35;;;3.78;;
3016;SDS011;1518;52.408;13.060;2023-04-15T06:28:17;3.92;;;3.58;;
3016;SDS011;1518;52.408;13.060;2023-04-15T06:31:06;3.50;;;3.20;;
3016;SDS011;1518;52.408;13.060;2023-04-15T06:33:54;4.60;;;4.15;;
3016;SDS011;1518;52.408;13.060;2023-04-15T06:36:42;4.07;;;3.38;;
3016;SDS011;1518;52.408;13.060;2023-04-15T06:39:31;3.42;;;3.10;;
3016;SDS011;1518;52.408;13.060;2023-04-15T06:42:19;4.28;;;3.88;;
3016;SDS011;1518;52.408;13.060;2023-04-15T06:45:07;5.45;;;3.70;;
3016;SDS011;1518;52.408;13.060;2023-04-15T06:47:57;4.63;;;4.22;;
3016;SDS011;1518;52.408;13.060;2023-04-15T06:50:45;6.07;;;4.35;;
3016;SDS011;1518;52.408;13.060;2023-04-15T06:53:33;4.50;;;3.50;;
3016;SDS011;1518;52.408;13.060;2023-04-15T06:56:26;3.70;;;3.40;;
3016;SDS011;1518;52.408;13.060;2023-04-15T06:59:14;3.65;;;3.35;;
3016;SDS011;1518;52.408;13.060;2023-04-15T07:02:02;3.50;;;3.20;;
3016;SDS011;1518;52.408;13.060;2023-04-15T07:04:52;4.10;;;3.75;;
3016;SDS011;1518;52.408;13.060;2023-04-15T07:07:40;3.25;;;3.00;;
3016;SDS011;1518;52.408;13.060;2023-04-15T07:10:28;3.97;;;3.58;;
3016;SDS011;1518;52.408;13.060;2023-04-15T07:13:16;4.60;;;3.85;;
3016;SDS011;1518;52.408;13.060;2023-04-15T07:16:04;3.90;;;3.60;;
3016;SDS011;1518;52.408;13.060;2023-04-15T07:18:53;4.25;;;3.85;;
3016;SDS011;1518;52.408;13.060;2023-04-15T07:21:42;3.80;;;3.47;;
3016;SDS011;1518;52.408;13.060;2023-04-15T07:24:30;4.30;;;3.30;;
3016;SDS011;1518;52.408;13.060;2023-04-15T07:27:18;3.55;;;2.97;;
3016;SDS011;1518;52.408;13.060;2023-04-15T07:30:07;4.00;;;3.60;;
3016;SDS011;1518;52.408;13.060;2023-04-15T07:32:57;4.00;;;3.22;;
3016;SDS011;1518;52.408;13.060;2023-04-15T07:35:45;3.35;;;3.05;;
3016;SDS011;1518;52.408;13.060;2023-04-15T07:38:34;4.30;;;3.88;;
3016;SDS011;1518;52.408;13.060;2023-04-15T07:41:22;4.72;;;4.22;;
3016;SDS011;1518;52.408;13.060;2023-04-15T07:44:11;4.38;;;3.17;;
3016;SDS011;1518;52.408;13.060;2023-04-15T07:46:59;5.00;;;4.60;;
3016;SDS011;1518;52.408;13.060;2023-04-15T07:49:48;4.32;;;3.70;;
3016;SDS011;1518;52.408;13.060;2023-04-15T07:52:37;4.40;;;4.00;;
3016;SDS011;1518;52.408;13.060;2023-04-15T07:55:26;3.53;;;3.33;;
3016;SDS011;1518;52.408;13.060;2023-04-15T07:58:16;4.60;;;3.70;;
3016;SDS011;1518;52.408;13.060;2023-04-15T08:01:04;4.38;;;3.60;;
3016;SDS011;1518;52.408;13.060;2023-04-15T08:03:52;5.13;;;4.30;;
3016;SDS011;1518;52.408;13.060;2023-04-15T08:06:41;4.85;;;3.90;;
3016;SDS011;1518;52.408;13.060;2023-04-15T08:09:29;4.90;;;4.03;;
3016;SDS011;1518;52.408;13.060;2023-04-15T08:12:18;3.85;;;3.45;;
3016;SDS011;1518;52.408;13.060;2023-04-15T08:15:07;3.72;;;3.45;;
3016;SDS011;1518;52.408;13.060;2023-04-15T08:17:56;4.57;;;4.15;;
3016;SDS011;1518;52.408;13.060;2023-04-15T08:20:46;3.95;;;3.55;;
3016;SDS011;1518;52.408;13.060;2023-04-15T08:23:35;4.35;;;3.35;;
3016;SDS011;1518;52.408;13.060;2023-04-15T08:26:23;4.68;;;4.18;;
3016;SDS011;1518;52.408;13.060;2023-04-15T08:29:12;4.55;;;3.95;;
3016;SDS011;1518;52.408;13.060;2023-04-15T08:32:00;3.90;;;3.50;;
3016;SDS011;1518;52.408;13.060;2023-04-15T08:34:49;3.53;;;3.22;;
3016;SDS011;1518;52.408;13.060;2023-04-15T08:37:37;4.22;;;3.60;;
3016;SDS011;1518;52.408;13.060;2023-04-15T08:40:25;3.80;;;3.50;;
3016;SDS011;1518;52.408;13.060;2023-04-15T08:43:32;4.03;;;3.53;;
3016;SDS011;1518;52.408;13.060;2023-04-15T08:46:23;3.83;;;3.53;;
3016;SDS011;1518;52.408;13.060;2023-04-15T08:49:12;4.00;;;3.70;;
3016;SDS011;1518;52.408;13.060;2023-04-15T08:52:01;4.15;;;3.85;;
3016;SDS011;1518;52.408;13.060;2023-04-15T08:54:49;4.65;;;3.28;;
3016;SDS011;1518;52.408;13.060;2023-04-15T08:57:39;3.85;;;3.55;;
3016;SDS011;1518;52.408;13.060;2023-04-15T09:00:27;4.40;;;3.70;;
3016;SDS011;1518;52.408;13.060;2023-04-15T09:03:17;3.80;;;3.50;;
3016;SDS011;1518;52.408;13.060;2023-04-15T09:06:05;6.13;;;3.60;;
3016;SDS011;1518;52.408;13.060;2023-04-15T09:08:53;4.15;;;3.75;;
3016;SDS011;1518;52.408;13.060;2023-04-15T09:11:42;4.25;;;3.85;;
3016;SDS011;1518;52.408;13.060;2023-04-15T09:14:30;4.40;;;3.92;;
3016;SDS011;1518;52.408;13.060;2023-04-15T09:17:19;4.85;;;4.10;;
3016;SDS011;1518;52.408;13.060;2023-04-15T09:20:10;3.75;;;3.45;;
3016;SDS011;1518;52.408;13.060;2023-04-15T09:22:59;4.82;;;4.15;;
3016;SDS011;1518;52.408;13.060;2023-04-15T09:25:57;4.68;;;4.28;;
3016;SDS011;1518;52.408;13.060;2023-04-15T09:28:46;4.75;;;4.05;;
3016;SDS011;1518;52.408;13.060;2023-04-15T09:31:34;4.82;;;4.43;;
3016;SDS011;1518;52.408;13.060;2023-04-15T09:34:23;5.10;;;4.68;;
3016;SDS011;1518;52.408;13.060;2023-04-15T09:37:34;5.43;;;4.93;;
3016;SDS011;1518;52.408;13.060;2023-04-15T09:40:32;4.93;;;4.43;;
3016;SDS011;1518;52.408;13.060;2023-04-15T09:43:21;4.68;;;4.32;;
3016;SDS011;1518;52.408;13.060;2023-04-15T09:46:09;5.05;;;4.20;;
3016;SDS011;1518;52.408;13.060;2023-04-15T09:49:06;5.45;;;4.35;;
3016;SDS011;1518;52.408;13.060;2023-04-15T09:51:57;4.55;;;4.10;;
3016;SDS011;1518;52.408;13.060;2023-04-15T09:54:53;4.43;;;4.03;;
3016;SDS011;1518;52.408;13.060;2023-04-15T09:57:42;4.68;;;4.07;;
3016;SDS011;1518;52.408;13.060;2023-04-15T10:00:32;4.68;;;3.97;;
3016;SDS011;1518;52.408;13.060;2023-04-15T10:03:21;4.75;;;4.18;;
3016;SDS011;1518;52.408;13.060;2023-04-15T10:06:11;4.60;;;4.20;;
3016;SDS011;1518;52.408;13.060;2023-04-15T10:09:02;3.83;;;3.53;;
3016;SDS011;1518;52.408;13.060;2023-04-15T10:11:51;5.20;;;4.13;;
3016;SDS011;1518;52.408;13.060;2023-04-15T10:14:40;4.38;;;4.07;;
3016;SDS011;1518;52.408;13.060;2023-04-15T10:17:30;4.25;;;3.95;;
3016;SDS011;1518;52.408;13.060;2023-04-15T10:20:21;4.55;;;3.90;;
3016;SDS011;1518;52.408;13.060;2023-04-15T10:23:09;4.25;;;3.92;;
3016;SDS011;1518;52.408;13.060;2023-04-15T10:25:59;4.07;;;3.78;;
3016;SDS011;1518;52.408;13.060;2023-04-15T10:28:49;5.05;;;3.97;;
3016;SDS011;1518;52.408;13.060;2023-04-15T10:31:39;4.85;;;4.38;;
3016;SDS011;1518;52.408;13.060;2023-04-15T10:34:27;4.45;;;4.05;;
3016;SDS011;1518;52.408;13.060;2023-04-15T10:37:19;4.70;;;4.30;;
3016;SDS011;1518;52.408;13.060;2023-04-15T10:40:24;4.68;;;4.28;;
3016;SDS011;1518;52.408;13.060;2023-04-15T10:43:19;5.18;;;4.68;;
3016;SDS011;1518;52.408;13.060;2023-04-15T10:46:15;6.13;;;5.53;;
3016;SDS011;1518;52.408;13.060;2023-04-15T10:49:08;4.35;;;3.80;;
3016;SDS011;1518;52.408;13.060;2023-04-15T10:51:58;4.60;;;4.20;;
3016;SDS011;1518;52.408;13.060;2023-04-15T10:54:46;4.72;;;4.32;;
3016;SDS011;1518;52.408;13.060;2023-04-15T10:57:34;4.90;;;4.35;;
3016;SDS011;1518;52.408;13.060;2023-04-15T11:00:27;6.00;;;4.82;;
3016;SDS011;1518;52.408;13.060;2023-04-15T11:03:20;5.07;;;4.43;;
3016;SDS011;1518;52.408;13.060;2023-04-15T11:06:23;4.82;;;4.40;;
3016;SDS011;1518;52.408;13.060;2023-04-15T11:09:31;4.70;;;4.30;;
3016;SDS011;1518;52.408;13.060;2023-04-15T11:12:19;5.32;;;4.82;;
3016;SDS011;1518;52.408;13.060;2023-04-15T11:18:20;5.05;;;4.55;;
3016;SDS011;1518;52.408;13.060;2023-04-15T11:21:10;5.32;;;4.00;;
3016;SDS011;1518;52.408;13.060;2023-04-15T11:23:58;5.00;;;4.50;;
3016;SDS011;1518;52.408;13.060;2023-04-15T11:26:48;3.88;;;3.58;;
3016;SDS011;1518;52.408;13.060;2023-04-15T11:29:37;4.60;;;4.18;;
3016;SDS011;1518;52.408;13.060;2023-04-15T11:32:25;4.20;;;3.90;;
3016;SDS011;1518;52.408;13.060;2023-04-15T11:35:15;4.50;;;4.10;;
3016;SDS011;1518;52.408;13.060;2023-04-15T11:38:04;3.95;;;3.65;;
3016;SDS011;1518;52.408;13.060;2023-04-15T11:40:54;4.43;;;4.03;;
3016;SDS011;1518;52.408;13.060;2023-04-15T11:43:42;4.85;;;4.15;;
3016;SDS011;1518;52.408;13.060;2023-04-15T11:46:30;5.63;;;4.78;;
3016;SDS011;1518;52.408;13.060;2023-04-15T11:49:25;5.43;;;4.63;;
3016;SDS011;1518;52.408;13.060;2023-04-15T11:52:15;5.25;;;4.55;;
3016;SDS011;1518;52.408;13.060;2023-04-15T11:55:06;4.38;;;3.97;;
3016;SDS011;1518;52.408;13.060;2023-04-15T11:58:07;4.68;;;4.28;;
3016;SDS011;1518;52.408;13.060;2023-04-15T12:00:57;4.93;;;4.53;;
3016;SDS011;1518;52.408;13.060;2023-04-15T12:03:46;5.68;;;5.05;;
3016;SDS011;1518;52.408;13.060;2023-04-15T12:06:36;5.72;;;5.13;;
3016;SDS011;1518;52.408;13.060;2023-04-15T12:09:26;4.15;;;3.85;;
3016;SDS011;1518;52.408;13.060;2023-04-15T12:12:16;4.43;;;4.10;;
3016;SDS011;1518;52.408;13.060;2023-04-15T12:15:06;4.47;;;4.07;;
3016;SDS011;1518;52.408;13.060;2023-04-15T12:17:56;5.40;;;4.95;;
3016;SDS011;1518;52.408;13.060;2023-04-15T12:20:44;5.28;;;4.32;;
3016;SDS011;1518;52.408;13.060;2023-04-15T12:23:35;5.32;;;4.82;;
3016;SDS011;1518;52.408;13.060;2023-04-15T12:26:28;4.57;;;4.20;;
3016;SDS011;1518;52.408;13.060;2023-04-15T12:29:18;5.25;;;4.40;;
3016;SDS011;1518;52.408;13.060;2023-04-15T12:32:08;5.10;;;4.50;;
3016;SDS011;1518;52.408;13.060;2023-04-15T12:34:57;5.05;;;4.55;;
3016;SDS011;1518;52.408;13.060;2023-04-15T12:37:45;4.18;;;3.83;;
3016;SDS011;1518;52.408;13.060;2023-04-15T12:40:33;4.88;;;4.40;;
3016;SDS011;1518;52.408;13.060;2023-04-15T12:43:23;4.68;;;4.28;;
3016;SDS011;1518;52.408;13.060;2023-04-15T12:46:12;4.53;;;4.05;;
3016;SDS011;1518;52.408;13.060;2023-04-15T12:49:01;5.00;;;4.47;;
3016;SDS011;1518;52.408;13.060;2023-04-15T12:51:49;5.53;;;5.05;;
3016;SDS011;1518;52.408;13.060;2023-04-15T12:54:38;5.47;;;4.97;;
3016;SDS011;1518;52.408;13.060;2023-04-15T12:57:26;5.93;;;5.38;;
3016;SDS011;1518;52.408;13.060;2023-04-15T13:00:16;5.30;;;4.80;;
3016;SDS011;1518;52.408;13.060;2023-04-15T13:03:04;4.20;;;3.90;;
3016;SDS011;1518;52.408;13.060;2023-04-15T13:05:53;5.15;;;4.70;;
3016;SDS011;1518;52.408;13.060;2023-04-15T13:08:41;5.72;;;5.22;;
3016;SDS011;1518;52.408;13.060;2023-04-15T13:11:43;4.40;;;4.00;;
3016;SDS011;1518;52.408;13.060;2023-04-15T13:14:31;5.45;;;4.95;;
3016;SDS011;1518;52.408;13.060;2023-04-15T13:17:21;7.03;;;5.45;;
3016;SDS011;1518;52.408;13.060;2023-04-15T13:20:09;6.65;;;5.97;;
3016;SDS011;1518;52.408;13.060;2023-04-15T13:22:57;6.00;;;5.20;;
3016;SDS011;1518;52.408;13.060;2023-04-15T13:25:46;6.70;;;6.00;;
3016;SDS011;1518;52.408;13.060;2023-04-15T13:28:34;5.90;;;5.28;;
3016;SDS011;1518;52.408;13.060;2023-04-15T13:31:22;5.00;;;4.57;;
3016;SDS011;1518;52.408;13.060;2023-04-15T13:34:11;6.05;;;5.45;;
3016;SDS011;1518;52.408;13.060;2023-04-15T13:37:04;5.80;;;5.20;;
3016;SDS011;1518;52.408;13.060;2023-04-15T13:39:54;5.72;;;5.15;;
3016;SDS011;1518;52.408;13.060;2023-04-15T13:42:42;5.03;;;4.57;;
3016;SDS011;1518;52.408;13.060;2023-04-15T13:45:31;4.97;;;4.57;;
3016;SDS011;1518;52.408;13.060;2023-04-15T13:48:19;4.68;;;4.28;;
3016;SDS011;1518;52.408;13.060;2023-04-15T13:51:08;4.68;;;4.32;;
3016;SDS011;1518;52.408;13.060;2023-04-15T13:53:56;5.35;;;4.75;;
3016;SDS011;1518;52.408;13.060;2023-04-15T13:56:44;4.90;;;4.40;;
3016;SDS011;1518;52.408;13.060;2023-04-15T13:59:32;5.53;;;4.05;;
3016;SDS011;1518;52.408;13.060;2023-04-15T14:02:21;4.43;;;4.03;;
3016;SDS011;1518;52.408;13.060;2023-04-15T14:05:10;4.88;;;4.32;;
3016;SDS011;1518;52.408;13.060;2023-04-15T14:07:59;4.63;;;4.22;;
3016;SDS011;1518;52.408;13.060;2023-04-15T14:10:47;4.53;;;4.13;;
3016;SDS011;1518;52.408;13.060;2023-04-15T14:13:35;4.45;;;4.05;;
3016;SDS011;1518;52.408;13.060;2023-04-15T14:16:24;4.40;;;4.00;;
3016;SDS011;1518;52.408;13.060;2023-04-15T14:19:13;4.70;;;4.18;;
3016;SDS011;1518;52.408;13.060;2023-04-15T14:22:01;4.22;;;3.83;;
3016;SDS011;1518;52.408;13.060;2023-04-15T14:24:51;5.43;;;4.25;;
3016;SDS011;1518;52.408;13.060;2023-04-15T14:27:41;4.53;;;4.13;;
3016;SDS011;1518;52.408;13.060;2023-04-15T14:30:29;4.82;;;4.43;;
3016;SDS011;1518;52.408;13.060;2023-04-15T14:33:17;4.63;;;4.22;;
3016;SDS011;1518;52.408;13.060;2023-04-15T14:36:06;4.72;;;3.97;;
3016;SDS011;1518;52.408;13.060;2023-04-15T14:38:55;4.93;;;4.45;;
3016;SDS011;1518;52.408;13.060;2023-04-15T14:41:44;3.97;;;3.63;;
3016;SDS011;1518;52.408;13.060;2023-04-15T14:44:32;4.50;;;4.10;;
3016;SDS011;1518;52.408;13.060;2023-04-15T14:47:20;4.78;;;4.13;;
3016;SDS011;1518;52.408;13.060;2023-04-15T14:50:09;4.65;;;4.25;;
3016;SDS011;1518;52.408;13.060;2023-04-15T14:52:57;4.43;;;4.03;;
3016;SDS011;1518;52.408;13.060;2023-04-15T14:55:45;4.65;;;3.85;;
3016;SDS011;1518;52.408;13.060;2023-04-15T14:58:35;4.72;;;4.32;;
3016;SDS011;1518;52.408;13.060;2023-04-15T15:01:23;4.20;;;3.90;;
3016;SDS011;1518;52.408;13.060;2023-04-15T15:04:11;4.97;;;4.47;;
3016;SDS011;1518;52.408;13.060;2023-04-15T15:06:59;4.63;;;4.18;;
3016;SDS011;1518;52.408;13.060;2023-04-15T15:09:47;5.13;;;4.63;;
3016;SDS011;1518;52.408;13.060;2023-04-15T15:12:36;4.72;;;4.25;;
3016;SDS011;1518;52.408;13.060;2023-04-15T15:15:25;4.38;;;3.97;;
3016;SDS011;1518;52.408;13.060;2023-04-15T15:18:14;4.30;;;3.90;;
3016;SDS011;1518;52.408;13.060;2023-04-15T15:21:04;7.10;;;4.40;;
3016;SDS011;1518;52.408;13.060;2023-04-15T15:23:52;4.07;;;3.67;;
3016;SDS011;1518;52.408;13.060;2023-04-15T15:26:40;5.22;;;4.72;;
3016;SDS011;1518;52.408;13.060;2023-04-15T15:29:28;4.57;;;4.18;;
3016;SDS011;1518;52.408;13.060;2023-04-15T15:32:18;4.40;;;4.00;;
3016;SDS011;1518;52.408;13.060;2023-04-15T15:35:06;4.20;;;3.80;;
3016;SDS011;1518;52.408;13.060;2023-04-15T15:37:54;4.38;;;3.97;;
3016;SDS011;1518;52.408;13.060;2023-04-15T15:40:42;4.65;;;4.00;;
3016;SDS011;1518;52.408;13.060;2023-04-15T15:43:30;4.60;;;4.20;;
3016;SDS011;1518;52.408;13.060;2023-04-15T15:46:19;4.07;;;3.78;;
3016;SDS011;1518;52.408;13.060;2023-04-15T15:49:11;4.40;;;4.10;;
3016;SDS011;1518;52.408;13.060;2023-04-15T15:51:59;4.60;;;4.20;;
3016;SDS011;1518;52.408;13.060;2023-04-15T15:54:47;4.65;;;4.25;;
3016;SDS011;1518;52.408;13.060;2023-04-15T15:57:36;4.30;;;3.90;;
3016;SDS011;1518;52.408;13.060;2023-04-15T16:00:24;4.38;;;4.03;;
3016;SDS011;1518;52.408;13.060;2023-04-15T16:03:12;3.83;;;3.50;;
3016;SDS011;1518;52.408;13.060;2023-04-15T16:06:02;4.60;;;3.80;;
3016;SDS011;1518;52.408;13.060;2023-04-15T16:08:50;4.50;;;4.10;;
3016;SDS011;1518;52.408;13.060;2023-04-15T16:11:38;3.67;;;3.38;;
3016;SDS011;1518;52.408;13.060;2023-04-15T16:14:26;4.47;;;4.07;;
3016;SDS011;1518;52.408;13.060;2023-04-15T16:17:14;4.85;;;4.45;;
3016;SDS011;1518;52.408;13.060;2023-04-15T16:20:03;4.18;;;3.83;;
3016;SDS011;1518;52.408;13.060;2023-04-15T16:22:53;4.10;;;3.70;;
3016;SDS011;1518;52.408;13.060;2023-04-15T16:25:43;4.22;;;3.90;;
3016;SDS011;1518;52.408;13.060;2023-04-15T16:28:31;4.70;;;4.30;;
3016;SDS011;1518;52.408;13.060;2023-04-15T16:31:19;4.10;;;3.80;;
3016;SDS011;1518;52.408;13.060;2023-04-15T16:34:08;4.97;;;3.80;;
3016;SDS011;1518;52.408;13.060;2023-04-15T16:36:56;4.75;;;4.35;;
3016;SDS011;1518;52.408;13.060;2023-04-15T16:39:46;5.05;;;4.55;;
3016;SDS011;1518;52.408;13.060;2023-04-15T16:42:34;4.45;;;3.75;;
3016;SDS011;1518;52.408;13.060;2023-04-15T16:45:22;4.22;;;3.80;;
3016;SDS011;1518;52.408;13.060;2023-04-15T16:48:10;3.63;;;3.33;;
3016;SDS011;1518;52.408;13.060;2023-04-15T16:50:58;3.50;;;3.20;;
3016;SDS011;1518;52.408;13.060;2023-04-15T16:53:47;4.30;;;3.95;;
3016;SDS011;1518;52.408;13.060;2023-04-15T16:56:36;4.10;;;3.72;;
3016;SDS011;1518;52.408;13.060;2023-04-15T16:59:24;4.50;;;4.10;;
3016;SDS011;1518;52.408;13.060;2023-04-15T17:02:12;4.30;;;3.90;;
3016;SDS011;1518;52.408;13.060;2023-04-15T17:05:01;4.20;;;3.88;;
3016;SDS011;1518;52.408;13.060;2023-04-15T17:07:49;4.38;;;3.97;;
3016;SDS011;1518;52.408;13.060;2023-04-15T17:10:37;6.28;;;4.53;;
3016;SDS011;1518;52.408;13.060;2023-04-15T17:13:26;4.10;;;3.80;;
3016;SDS011;1518;52.408;13.060;2023-04-15T17:16:15;4.68;;;4.28;;